sensor_id;sensor_type;location;lat;lon;timestamp;temperature;humidity
19966;DHT22;10144;50.874;4.762;2022-12-13T00:01:49;-1.90;99.90
19966;DHT22;10144;50.874;4.762;2022-12-13T00:04:17;-1.80;99.90
19966;DHT22;10144;50.874;4.762;2022-12-13T00:06:43;-1.80;99.90
19966;DHT22;10144;50.874;4.762;2022-12-13T00:09:10;-1.70;99.90
19966;DHT22;10144;50.874;4.762;2022-12-13T00:11:37;-1.80;99.90
19966;DHT22;10144;50.874;4.762;2022-12-13T00:14:03;-1.80;99.90
19966;DHT22;10144;50.874;4.762;2022-12-13T00:16:29;-1.80;99.90
19966;DHT22;10144;50.874;4.762;2022-12-13T00:18:59;-1.80;99.90
19966;DHT22;10144;50.874;4.762;2022-12-13T00:21:30;-1.80;99.90
19966;DHT22;10144;50.874;4.762;2022-12-13T00:23:56;-1.80;99.90
19966;DHT22;10144;50.874;4.762;2022-12-13T00:26:25;-1.80;99.90
19966;DHT22;10144;50.874;4.762;2022-12-13T00:28:51;-1.80;99.90
19966;DHT22;10144;50.874;4.762;2022-12-13T00:31:21;-1.80;99.90
19966;DHT22;10144;50.874;4.762;2022-12-13T00:33:47;-1.80;99.90
19966;DHT22;10144;50.874;4.762;2022-12-13T00:36:13;-1.90;99.90
19966;DHT22;10144;50.874;4.762;2022-12-13T00:38:39;-1.90;99.90
19966;DHT22;10144;50.874;4.762;2022-12-13T00:41:18;-2.00;99.90
19966;DHT22;10144;50.874;4.762;2022-12-13T00:43:44;-2.10;99.90
19966;DHT22;10144;50.874;4.762;2022-12-13T00:46:17;-2.10;99.90
19966;DHT22;10144;50.874;4.762;2022-12-13T00:48:47;-2.10;99.90
19966;DHT22;10144;50.874;4.762;2022-12-13T00:51:13;-2.20;99.90
19966;DHT22;10144;50.874;4.762;2022-12-13T00:53:41;-2.20;99.90
19966;DHT22;10144;50.874;4.762;2022-12-13T00:56:11;-2.20;99.90
19966;DHT22;10144;50.874;4.762;2022-12-13T00:58:38;-2.20;99.90
19966;DHT22;10144;50.874;4.762;2022-12-13T01:01:09;-2.30;99.90
19966;DHT22;10144;50.874;4.762;2022-12-13T01:03:38;-2.20;99.90
19966;DHT22;10144;50.874;4.762;2022-12-13T01:06:09;-2.20;99.90
19966;DHT22;10144;50.874;4.762;2022-12-13T01:08:35;-2.20;99.90
19966;DHT22;10144;50.874;4.762;2022-12-13T01:11:03;-2.20;99.90
19966;DHT22;10144;50.874;4.762;2022-12-13T01:13:29;-2.10;99.90
19966;DHT22;10144;50.874;4.762;2022-12-13T01:15:55;-2.20;99.90
19966;DHT22;10144;50.874;4.762;2022-12-13T01:18:21;-2.10;99.90
19966;DHT22;10144;50.874;4.762;2022-12-13T01:21:01;-2.20;99.90
19966;DHT22;10144;50.874;4.762;2022-12-13T01:23:28;-2.10;99.90
19966;DHT22;10144;50.874;4.762;2022-12-13T01:25:54;-2.10;99.90
19966;DHT22;10144;50.874;4.762;2022-12-13T01:28:20;-2.10;99.90
19966;DHT22;10144;50.874;4.762;2022-12-13T01:31:01;-2.10;99.90
19966;DHT22;10144;50.874;4.762;2022-12-13T01:33:28;-2.00;99.90
19966;DHT22;10144;50.874;4.762;2022-12-13T01:35:54;-2.00;99.90
19966;DHT22;10144;50.874;4.762;2022-12-13T01:38:20;-2.10;99.90
19966;DHT22;10144;50.874;4.762;2022-12-13T01:40:48;-2.00;99.90
19966;DHT22;10144;50.874;4.762;2022-12-13T01:43:16;-2.00;99.90
19966;DHT22;10144;50.874;4.762;2022-12-13T01:45:43;-2.10;99.90
19966;DHT22;10144;50.874;4.762;2022-12-13T01:48:14;-2.30;99.90
19966;DHT22;10144;50.874;4.762;2022-12-13T01:50:44;-2.50;99.90
19966;DHT22;10144;50.874;4.762;2022-12-13T01:53:18;-2.60;99.90
19966;DHT22;10144;50.874;4.762;2022-12-13T01:55:46;-2.60;99.90
19966;DHT22;10144;50.874;4.762;2022-12-13T01:58:14;-2.70;99.90
19966;DHT22;10144;50.874;4.762;2022-12-13T02:00:42;-2.70;99.90
19966;DHT22;10144;50.874;4.762;2022-12-13T02:03:08;-2.60;99.90
19966;DHT22;10144;50.874;4.762;2022-12-13T02:05:38;-2.40;99.90
19966;DHT22;10144;50.874;4.762;2022-12-13T02:08:07;-2.50;99.90
19966;DHT22;10144;50.874;4.762;2022-12-13T02:10:35;-2.60;99.90
19966;DHT22;10144;50.874;4.762;2022-12-13T02:13:00;-2.60;99.90
19966;DHT22;10144;50.874;4.762;2022-12-13T02:15:34;-2.60;99.90
19966;DHT22;10144;50.874;4.762;2022-12-13T02:18:13;-2.60;99.90
19966;DHT22;10144;50.874;4.762;2022-12-13T02:26:27;-2.60;99.90
19966;DHT22;10144;50.874;4.762;2022-12-13T02:32:07;-2.60;99.90
19966;DHT22;10144;50.874;4.762;2022-12-13T02:34:59;-2.50;99.90
19966;DHT22;10144;50.874;4.762;2022-12-13T02:45:30;-2.70;99.90
19966;DHT22;10144;50.874;4.762;2022-12-13T02:48:00;-2.70;99.90
19966;DHT22;10144;50.874;4.762;2022-12-13T02:50:27;-2.70;99.90
19966;DHT22;10144;50.874;4.762;2022-12-13T02:52:55;-2.70;99.90
19966;DHT22;10144;50.874;4.762;2022-12-13T02:55:23;-2.70;99.90
19966;DHT22;10144;50.874;4.762;2022-12-13T02:57:49;-2.70;99.90
19966;DHT22;10144;50.874;4.762;2022-12-13T03:06:06;-2.90;99.90
19966;DHT22;10144;50.874;4.762;2022-12-13T03:17:24;-2.90;99.90
19966;DHT22;10144;50.874;4.762;2022-12-13T03:19:51;-2.90;99.90
19966;DHT22;10144;50.874;4.762;2022-12-13T03:22:18;-3.00;99.90
19966;DHT22;10144;50.874;4.762;2022-12-13T03:24:45;-3.00;99.90
19966;DHT22;10144;50.874;4.762;2022-12-13T03:27:11;-3.00;99.90
19966;DHT22;10144;50.874;4.762;2022-12-13T03:29:38;-3.00;99.90
19966;DHT22;10144;50.874;4.762;2022-12-13T03:32:04;-3.00;99.90
19966;DHT22;10144;50.874;4.762;2022-12-13T03:34:29;-3.10;99.90
19966;DHT22;10144;50.874;4.762;2022-12-13T03:36:55;-3.00;99.90
19966;DHT22;10144;50.874;4.762;2022-12-13T03:39:21;-3.10;99.90
19966;DHT22;10144;50.874;4.762;2022-12-13T03:41:48;-3.10;99.90
19966;DHT22;10144;50.874;4.762;2022-12-13T03:44:15;-3.00;99.90
19966;DHT22;10144;50.874;4.762;2022-12-13T03:46:41;-2.90;99.90
19966;DHT22;10144;50.874;4.762;2022-12-13T03:49:06;-2.90;99.90
19966;DHT22;10144;50.874;4.762;2022-12-13T03:51:32;-2.80;99.90
19966;DHT22;10144;50.874;4.762;2022-12-13T03:53:59;-2.80;99.90
19966;DHT22;10144;50.874;4.762;2022-12-13T03:56:25;-2.80;99.90
19966;DHT22;10144;50.874;4.762;2022-12-13T03:58:52;-2.90;99.90
19966;DHT22;10144;50.874;4.762;2022-12-13T04:01:18;-2.90;99.90
19966;DHT22;10144;50.874;4.762;2022-12-13T04:03:46;-2.90;99.90
19966;DHT22;10144;50.874;4.762;2022-12-13T04:06:12;-2.90;99.90
19966;DHT22;10144;50.874;4.762;2022-12-13T04:08:38;-2.90;99.90
19966;DHT22;10144;50.874;4.762;2022-12-13T04:11:05;-2.90;99.90
19966;DHT22;10144;50.874;4.762;2022-12-13T04:13:51;-2.80;99.90
19966;DHT22;10144;50.874;4.762;2022-12-13T04:16:17;-2.80;99.90
19966;DHT22;10144;50.874;4.762;2022-12-13T04:18:42;-2.80;99.90
19966;DHT22;10144;50.874;4.762;2022-12-13T04:21:09;-2.70;99.90
19966;DHT22;10144;50.874;4.762;2022-12-13T04:23:34;-2.80;99.90
19966;DHT22;10144;50.874;4.762;2022-12-13T04:26:01;-2.80;99.90
19966;DHT22;10144;50.874;4.762;2022-12-13T04:28:26;-2.80;99.90
19966;DHT22;10144;50.874;4.762;2022-12-13T04:30:52;-2.90;99.90
19966;DHT22;10144;50.874;4.762;2022-12-13T04:33:18;-2.90;99.90
19966;DHT22;10144;50.874;4.762;2022-12-13T04:35:46;-2.80;99.90
19966;DHT22;10144;50.874;4.762;2022-12-13T04:38:11;-2.80;99.90
19966;DHT22;10144;50.874;4.762;2022-12-13T04:40:37;-2.70;99.90
19966;DHT22;10144;50.874;4.762;2022-12-13T04:43:03;-2.70;99.90
19966;DHT22;10144;50.874;4.762;2022-12-13T04:45:28;-2.70;99.90
19966;DHT22;10144;50.874;4.762;2022-12-13T04:47:54;-2.80;99.90
19966;DHT22;10144;50.874;4.762;2022-12-13T04:50:20;-2.80;99.90
19966;DHT22;10144;50.874;4.762;2022-12-13T04:52:45;-2.80;99.90
19966;DHT22;10144;50.874;4.762;2022-12-13T04:55:11;-2.90;99.90
19966;DHT22;10144;50.874;4.762;2022-12-13T04:57:37;-2.80;99.90
19966;DHT22;10144;50.874;4.762;2022-12-13T05:00:04;-3.00;99.90
19966;DHT22;10144;50.874;4.762;2022-12-13T05:02:31;-3.00;99.90
19966;DHT22;10144;50.874;4.762;2022-12-13T05:04:56;-3.10;99.90
19966;DHT22;10144;50.874;4.762;2022-12-13T05:07:22;-3.30;99.90
19966;DHT22;10144;50.874;4.762;2022-12-13T05:09:49;-3.30;99.90
19966;DHT22;10144;50.874;4.762;2022-12-13T05:12:15;-3.40;99.90
19966;DHT22;10144;50.874;4.762;2022-12-13T05:14:42;-3.40;99.90
19966;DHT22;10144;50.874;4.762;2022-12-13T05:17:07;-3.50;99.90
19966;DHT22;10144;50.874;4.762;2022-12-13T05:19:33;-3.60;99.90
19966;DHT22;10144;50.874;4.762;2022-12-13T05:21:59;-3.60;99.90
19966;DHT22;10144;50.874;4.762;2022-12-13T05:24:25;-3.70;99.90
19966;DHT22;10144;50.874;4.762;2022-12-13T05:26:50;-3.80;99.90
19966;DHT22;10144;50.874;4.762;2022-12-13T05:29:16;-3.80;99.90
19966;DHT22;10144;50.874;4.762;2022-12-13T05:31:42;-3.80;99.90
19966;DHT22;10144;50.874;4.762;2022-12-13T05:34:07;-3.80;99.90
19966;DHT22;10144;50.874;4.762;2022-12-13T05:36:33;-3.90;99.90
19966;DHT22;10144;50.874;4.762;2022-12-13T05:39:00;-3.90;99.90
19966;DHT22;10144;50.874;4.762;2022-12-13T05:41:28;-4.00;99.90
19966;DHT22;10144;50.874;4.762;2022-12-13T05:43:56;-4.10;99.90
19966;DHT22;10144;50.874;4.762;2022-12-13T05:46:23;-4.10;99.90
19966;DHT22;10144;50.874;4.762;2022-12-13T05:48:48;-4.20;99.90
19966;DHT22;10144;50.874;4.762;2022-12-13T05:51:14;-4.30;99.90
19966;DHT22;10144;50.874;4.762;2022-12-13T05:53:41;-4.30;99.90
19966;DHT22;10144;50.874;4.762;2022-12-13T05:56:07;-4.30;99.90
19966;DHT22;10144;50.874;4.762;2022-12-13T05:58:33;-4.30;99.90
19966;DHT22;10144;50.874;4.762;2022-12-13T06:01:25;-4.40;99.90
19966;DHT22;10144;50.874;4.762;2022-12-13T06:03:51;-4.30;99.90
19966;DHT22;10144;50.874;4.762;2022-12-13T06:06:16;-4.30;99.90
19966;DHT22;10144;50.874;4.762;2022-12-13T06:08:42;-4.20;99.90
19966;DHT22;10144;50.874;4.762;2022-12-13T06:11:08;-4.10;99.90
19966;DHT22;10144;50.874;4.762;2022-12-13T06:13:34;-4.10;99.90
19966;DHT22;10144;50.874;4.762;2022-12-13T06:16:04;-3.90;99.90
19966;DHT22;10144;50.874;4.762;2022-12-13T06:18:32;-3.90;99.90
19966;DHT22;10144;50.874;4.762;2022-12-13T06:21:00;-3.90;99.90
19966;DHT22;10144;50.874;4.762;2022-12-13T06:23:26;-3.90;99.90
19966;DHT22;10144;50.874;4.762;2022-12-13T06:25:55;-3.80;99.90
19966;DHT22;10144;50.874;4.762;2022-12-13T06:28:29;-3.80;99.90
19966;DHT22;10144;50.874;4.762;2022-12-13T06:30:58;-3.70;99.90
19966;DHT22;10144;50.874;4.762;2022-12-13T06:33:27;-3.70;99.90
19966;DHT22;10144;50.874;4.762;2022-12-13T06:36:00;-3.80;99.90
19966;DHT22;10144;50.874;4.762;2022-12-13T06:38:30;-3.90;99.90
19966;DHT22;10144;50.874;4.762;2022-12-13T06:43:45;-3.80;99.90
19966;DHT22;10144;50.874;4.762;2022-12-13T06:46:11;-3.80;99.90
19966;DHT22;10144;50.874;4.762;2022-12-13T06:48:40;-3.90;99.90
19966;DHT22;10144;50.874;4.762;2022-12-13T06:51:09;-3.90;99.90
19966;DHT22;10144;50.874;4.762;2022-12-13T06:53:48;-3.90;99.90
19966;DHT22;10144;50.874;4.762;2022-12-13T06:56:14;-3.80;99.90
19966;DHT22;10144;50.874;4.762;2022-12-13T06:58:40;-3.80;99.90
19966;DHT22;10144;50.874;4.762;2022-12-13T07:01:12;-3.80;99.90
19966;DHT22;10144;50.874;4.762;2022-12-13T07:03:39;-3.90;99.90
19966;DHT22;10144;50.874;4.762;2022-12-13T07:06:17;-3.90;99.90
19966;DHT22;10144;50.874;4.762;2022-12-13T07:08:49;-3.90;99.90
19966;DHT22;10144;50.874;4.762;2022-12-13T07:11:23;-4.00;99.90
19966;DHT22;10144;50.874;4.762;2022-12-13T07:13:51;-4.20;99.90
19966;DHT22;10144;50.874;4.762;2022-12-13T07:16:18;-4.40;99.90
19966;DHT22;10144;50.874;4.762;2022-12-13T07:18:47;-4.50;99.90
19966;DHT22;10144;50.874;4.762;2022-12-13T07:21:13;-4.60;99.90
19966;DHT22;10144;50.874;4.762;2022-12-13T07:23:41;-4.60;99.90
19966;DHT22;10144;50.874;4.762;2022-12-13T07:26:07;-4.70;99.90
19966;DHT22;10144;50.874;4.762;2022-12-13T07:28:35;-4.70;99.90
19966;DHT22;10144;50.874;4.762;2022-12-13T07:31:02;-4.70;99.90
19966;DHT22;10144;50.874;4.762;2022-12-13T07:33:29;-4.60;99.90
19966;DHT22;10144;50.874;4.762;2022-12-13T07:36:06;-4.50;99.90
19966;DHT22;10144;50.874;4.762;2022-12-13T07:38:34;-4.60;99.90
19966;DHT22;10144;50.874;4.762;2022-12-13T07:41:00;-4.60;99.90
19966;DHT22;10144;50.874;4.762;2022-12-13T07:43:25;-4.50;99.90
19966;DHT22;10144;50.874;4.762;2022-12-13T07:45:51;-4.60;99.90
19966;DHT22;10144;50.874;4.762;2022-12-13T07:48:18;-4.70;99.90
19966;DHT22;10144;50.874;4.762;2022-12-13T07:50:44;-4.70;99.90
19966;DHT22;10144;50.874;4.762;2022-12-13T07:53:09;-4.70;99.90
19966;DHT22;10144;50.874;4.762;2022-12-13T07:55:36;-4.70;99.90
19966;DHT22;10144;50.874;4.762;2022-12-13T07:58:03;-4.80;99.90
19966;DHT22;10144;50.874;4.762;2022-12-13T08:00:29;-4.60;99.90
19966;DHT22;10144;50.874;4.762;2022-12-13T08:02:55;-4.40;99.90
19966;DHT22;10144;50.874;4.762;2022-12-13T08:05:20;-4.30;99.90
19966;DHT22;10144;50.874;4.762;2022-12-13T08:07:46;-4.10;99.90
19966;DHT22;10144;50.874;4.762;2022-12-13T08:10:12;-3.80;99.90
19966;DHT22;10144;50.874;4.762;2022-12-13T08:12:37;-2.90;99.90
19966;DHT22;10144;50.874;4.762;2022-12-13T08:15:03;-1.80;99.90
19966;DHT22;10144;50.874;4.762;2022-12-13T08:17:29;-0.80;99.90
19966;DHT22;10144;50.874;4.762;2022-12-13T08:19:55;0.30;99.90
19966;DHT22;10144;50.874;4.762;2022-12-13T08:22:20;1.10;99.90
19966;DHT22;10144;50.874;4.762;2022-12-13T08:24:46;1.50;99.90
19966;DHT22;10144;50.874;4.762;2022-12-13T08:27:12;2.00;99.90
19966;DHT22;10144;50.874;4.762;2022-12-13T08:29:37;2.90;99.90
19966;DHT22;10144;50.874;4.762;2022-12-13T08:32:05;3.20;99.90
19966;DHT22;10144;50.874;4.762;2022-12-13T08:34:31;3.90;99.90
19966;DHT22;10144;50.874;4.762;2022-12-13T08:36:56;3.80;99.90
19966;DHT22;10144;50.874;4.762;2022-12-13T08:39:22;3.60;99.90
19966;DHT22;10144;50.874;4.762;2022-12-13T08:41:47;3.90;99.90
19966;DHT22;10144;50.874;4.762;2022-12-13T08:44:13;4.10;99.90
19966;DHT22;10144;50.874;4.762;2022-12-13T08:46:38;5.00;99.90
19966;DHT22;10144;50.874;4.762;2022-12-13T08:49:04;4.90;99.90
19966;DHT22;10144;50.874;4.762;2022-12-13T08:51:29;5.00;99.90
19966;DHT22;10144;50.874;4.762;2022-12-13T08:53:55;4.70;99.90
19966;DHT22;10144;50.874;4.762;2022-12-13T08:56:21;4.70;99.90
19966;DHT22;10144;50.874;4.762;2022-12-13T08:58:50;4.80;99.90
19966;DHT22;10144;50.874;4.762;2022-12-13T09:01:17;3.90;99.90
19966;DHT22;10144;50.874;4.762;2022-12-13T09:03:42;2.90;99.90
19966;DHT22;10144;50.874;4.762;2022-12-13T09:06:13;2.50;99.90
19966;DHT22;10144;50.874;4.762;2022-12-13T09:08:40;2.80;99.90
19966;DHT22;10144;50.874;4.762;2022-12-13T09:11:07;2.90;99.90
19966;DHT22;10144;50.874;4.762;2022-12-13T09:13:35;3.20;99.90
19966;DHT22;10144;50.874;4.762;2022-12-13T09:16:13;3.60;99.90
19966;DHT22;10144;50.874;4.762;2022-12-13T09:18:40;4.80;99.90
19966;DHT22;10144;50.874;4.762;2022-12-13T09:21:12;6.10;99.90
19966;DHT22;10144;50.874;4.762;2022-12-13T09:23:38;6.50;99.90
19966;DHT22;10144;50.874;4.762;2022-12-13T09:26:09;5.50;99.90
19966;DHT22;10144;50.874;4.762;2022-12-13T09:28:36;5.50;99.90
19966;DHT22;10144;50.874;4.762;2022-12-13T09:31:13;5.50;99.90
19966;DHT22;10144;50.874;4.762;2022-12-13T09:33:39;4.50;99.90
19966;DHT22;10144;50.874;4.762;2022-12-13T09:36:06;4.20;99.90
19966;DHT22;10144;50.874;4.762;2022-12-13T09:38:33;3.20;99.90
19966;DHT22;10144;50.874;4.762;2022-12-13T09:41:08;3.80;99.90
19966;DHT22;10144;50.874;4.762;2022-12-13T09:43:37;4.70;99.90
19966;DHT22;10144;50.874;4.762;2022-12-13T09:46:07;6.40;99.90
19966;DHT22;10144;50.874;4.762;2022-12-13T09:48:36;6.00;99.90
19966;DHT22;10144;50.874;4.762;2022-12-13T09:51:02;5.40;99.90
19966;DHT22;10144;50.874;4.762;2022-12-13T09:53:27;4.30;99.90
19966;DHT22;10144;50.874;4.762;2022-12-13T09:55:53;3.70;99.90
19966;DHT22;10144;50.874;4.762;2022-12-13T09:58:26;2.30;99.90
19966;DHT22;10144;50.874;4.762;2022-12-13T10:00:54;1.50;99.90
19966;DHT22;10144;50.874;4.762;2022-12-13T10:03:21;1.80;99.90
19966;DHT22;10144;50.874;4.762;2022-12-13T10:06:06;1.50;99.90
19966;DHT22;10144;50.874;4.762;2022-12-13T10:08:40;1.30;99.90
19966;DHT22;10144;50.874;4.762;2022-12-13T10:11:12;1.70;99.90
19966;DHT22;10144;50.874;4.762;2022-12-13T10:16:18;2.50;99.90
19966;DHT22;10144;50.874;4.762;2022-12-13T10:18:48;3.30;99.90
19966;DHT22;10144;50.874;4.762;2022-12-13T10:21:28;4.40;99.90
19966;DHT22;10144;50.874;4.762;2022-12-13T10:24:20;5.20;99.90
19966;DHT22;10144;50.874;4.762;2022-12-13T10:26:47;6.60;99.90
19966;DHT22;10144;50.874;4.762;2022-12-13T10:29:13;7.70;99.90
19966;DHT22;10144;50.874;4.762;2022-12-13T10:31:43;8.30;99.90
19966;DHT22;10144;50.874;4.762;2022-12-13T10:34:24;6.90;99.90
19966;DHT22;10144;50.874;4.762;2022-12-13T10:36:51;5.10;99.90
19966;DHT22;10144;50.874;4.762;2022-12-13T10:39:34;4.80;99.90
19966;DHT22;10144;50.874;4.762;2022-12-13T10:42:08;4.50;99.90
19966;DHT22;10144;50.874;4.762;2022-12-13T10:44:36;4.30;99.90
19966;DHT22;10144;50.874;4.762;2022-12-13T10:49:51;2.70;99.90
19966;DHT22;10144;50.874;4.762;2022-12-13T10:54:47;2.70;99.90
19966;DHT22;10144;50.874;4.762;2022-12-13T10:57:13;2.90;99.90
19966;DHT22;10144;50.874;4.762;2022-12-13T10:59:39;3.20;99.90
19966;DHT22;10144;50.874;4.762;2022-12-13T11:02:32;3.60;99.90
19966;DHT22;10144;50.874;4.762;2022-12-13T11:05:21;4.20;99.90
19966;DHT22;10144;50.874;4.762;2022-12-13T11:07:45;4.20;99.90
19966;DHT22;10144;50.874;4.762;2022-12-13T11:10:26;3.90;99.90
19966;DHT22;10144;50.874;4.762;2022-12-13T11:13:02;2.90;99.90
19966;DHT22;10144;50.874;4.762;2022-12-13T11:15:32;2.80;99.90
19966;DHT22;10144;50.874;4.762;2022-12-13T11:18:04;3.80;99.90
19966;DHT22;10144;50.874;4.762;2022-12-13T11:20:33;4.60;99.90
19966;DHT22;10144;50.874;4.762;2022-12-13T11:23:03;5.70;99.90
19966;DHT22;10144;50.874;4.762;2022-12-13T11:25:38;6.50;99.90
19966;DHT22;10144;50.874;4.762;2022-12-13T11:28:27;7.00;99.90
19966;DHT22;10144;50.874;4.762;2022-12-13T11:31:33;6.70;99.90
19966;DHT22;10144;50.874;4.762;2022-12-13T11:39:31;4.90;99.90
19966;DHT22;10144;50.874;4.762;2022-12-13T11:42:38;4.00;99.90
19966;DHT22;10144;50.874;4.762;2022-12-13T11:45:12;4.20;99.90
19966;DHT22;10144;50.874;4.762;2022-12-13T11:50:29;3.80;99.90
19966;DHT22;10144;50.874;4.762;2022-12-13T11:52:59;3.20;99.90
19966;DHT22;10144;50.874;4.762;2022-12-13T11:55:37;3.00;99.90
19966;DHT22;10144;50.874;4.762;2022-12-13T11:58:11;3.30;99.90
19966;DHT22;10144;50.874;4.762;2022-12-13T12:00:50;3.40;99.90
19966;DHT22;10144;50.874;4.762;2022-12-13T12:03:20;3.50;99.90
19966;DHT22;10144;50.874;4.762;2022-12-13T12:05:54;2.90;99.90
19966;DHT22;10144;50.874;4.762;2022-12-13T12:08:34;3.00;99.90
19966;DHT22;10144;50.874;4.762;2022-12-13T12:11:09;2.90;99.90
19966;DHT22;10144;50.874;4.762;2022-12-13T12:13:43;2.70;99.90
19966;DHT22;10144;50.874;4.762;2022-12-13T12:18:55;2.40;99.90
19966;DHT22;10144;50.874;4.762;2022-12-13T12:21:44;2.10;99.90
19966;DHT22;10144;50.874;4.762;2022-12-13T12:24:31;1.90;99.90
19966;DHT22;10144;50.874;4.762;2022-12-13T12:32:31;1.70;99.90
19966;DHT22;10144;50.874;4.762;2022-12-13T12:48:35;2.20;99.90
19966;DHT22;10144;50.874;4.762;2022-12-13T12:56:53;1.20;99.90
19966;DHT22;10144;50.874;4.762;2022-12-13T13:00:11;1.10;99.90
19966;DHT22;10144;50.874;4.762;2022-12-13T13:05:35;0.90;99.90
19966;DHT22;10144;50.874;4.762;2022-12-13T13:08:14;0.60;99.90
19966;DHT22;10144;50.874;4.762;2022-12-13T13:10:41;0.40;99.90
19966;DHT22;10144;50.874;4.762;2022-12-13T13:15:58;0.50;99.90
19966;DHT22;10144;50.874;4.762;2022-12-13T13:18:49;0.60;99.90
19966;DHT22;10144;50.874;4.762;2022-12-13T13:34:36;0.40;99.90
19966;DHT22;10144;50.874;4.762;2022-12-13T13:37:04;0.20;99.90
19966;DHT22;10144;50.874;4.762;2022-12-13T14:28:59;-0.70;99.90
19966;DHT22;10144;50.874;4.762;2022-12-13T14:32:03;-0.70;99.90
19966;DHT22;10144;50.874;4.762;2022-12-13T14:34:26;-0.70;99.90
19966;DHT22;10144;50.874;4.762;2022-12-13T14:37:03;-0.70;99.90
19966;DHT22;10144;50.874;4.762;2022-12-13T14:39:30;-0.70;99.90
19966;DHT22;10144;50.874;4.762;2022-12-13T14:42:00;-0.70;99.90
19966;DHT22;10144;50.874;4.762;2022-12-13T14:44:27;-0.60;99.90
19966;DHT22;10144;50.874;4.762;2022-12-13T14:47:04;-0.70;99.90
19966;DHT22;10144;50.874;4.762;2022-12-13T14:49:34;-0.70;99.90
19966;DHT22;10144;50.874;4.762;2022-12-13T14:52:23;-0.70;99.90
19966;DHT22;10144;50.874;4.762;2022-12-13T14:57:22;-0.90;99.90
19966;DHT22;10144;50.874;4.762;2022-12-13T14:59:52;-0.90;99.90
19966;DHT22;10144;50.874;4.762;2022-12-13T15:02:31;-0.90;99.90
19966;DHT22;10144;50.874;4.762;2022-12-13T15:05:02;-1.00;99.90
19966;DHT22;10144;50.874;4.762;2022-12-13T15:07:34;-1.10;99.90
19966;DHT22;10144;50.874;4.762;2022-12-13T15:10:04;-1.10;99.90
19966;DHT22;10144;50.874;4.762;2022-12-13T15:12:32;-1.20;99.90
19966;DHT22;10144;50.874;4.762;2022-12-13T15:15:05;-1.20;99.90
19966;DHT22;10144;50.874;4.762;2022-12-13T15:17:38;-1.30;99.90
19966;DHT22;10144;50.874;4.762;2022-12-13T15:22:56;-1.40;99.90
19966;DHT22;10144;50.874;4.762;2022-12-13T15:25:23;-1.40;99.90
19966;DHT22;10144;50.874;4.762;2022-12-13T15:27:50;-1.40;99.90
19966;DHT22;10144;50.874;4.762;2022-12-13T15:30:17;-1.50;99.90
19966;DHT22;10144;50.874;4.762;2022-12-13T15:33:21;-1.50;99.90
19966;DHT22;10144;50.874;4.762;2022-12-13T15:35:48;-1.50;99.90
19966;DHT22;10144;50.874;4.762;2022-12-13T15:38:17;-1.50;99.90
19966;DHT22;10144;50.874;4.762;2022-12-13T15:40:48;-1.60;99.90
19966;DHT22;10144;50.874;4.762;2022-12-13T15:43:21;-1.50;99.90
19966;DHT22;10144;50.874;4.762;2022-12-13T15:45:50;-1.60;99.90
19966;DHT22;10144;50.874;4.762;2022-12-13T15:48:26;-1.60;99.90
19966;DHT22;10144;50.874;4.762;2022-12-13T15:53:30;-1.70;99.90
19966;DHT22;10144;50.874;4.762;2022-12-13T15:55:57;-1.70;99.90
19966;DHT22;10144;50.874;4.762;2022-12-13T15:58:32;-1.70;99.90
19966;DHT22;10144;50.874;4.762;2022-12-13T16:00:58;-1.80;99.90
19966;DHT22;10144;50.874;4.762;2022-12-13T16:03:40;-1.90;99.90
19966;DHT22;10144;50.874;4.762;2022-12-13T16:06:08;-1.90;99.90
19966;DHT22;10144;50.874;4.762;2022-12-13T16:08:37;-1.90;99.90
19966;DHT22;10144;50.874;4.762;2022-12-13T16:11:04;-1.90;99.90
19966;DHT22;10144;50.874;4.762;2022-12-13T16:13:35;-1.90;99.90
19966;DHT22;10144;50.874;4.762;2022-12-13T16:16:24;-1.90;99.90
19966;DHT22;10144;50.874;4.762;2022-12-13T16:18:54;-1.90;99.90
19966;DHT22;10144;50.874;4.762;2022-12-13T16:21:20;-1.90;99.90
19966;DHT22;10144;50.874;4.762;2022-12-13T16:23:45;-1.90;99.90
19966;DHT22;10144;50.874;4.762;2022-12-13T16:26:12;-1.90;99.90
19966;DHT22;10144;50.874;4.762;2022-12-13T16:28:38;-1.90;99.90
19966;DHT22;10144;50.874;4.762;2022-12-13T16:31:24;-1.90;99.90
19966;DHT22;10144;50.874;4.762;2022-12-13T16:33:50;-1.90;99.90
19966;DHT22;10144;50.874;4.762;2022-12-13T16:36:16;-1.90;99.90
19966;DHT22;10144;50.874;4.762;2022-12-13T16:38:42;-2.00;99.90
19966;DHT22;10144;50.874;4.762;2022-12-13T16:41:08;-1.90;99.90
19966;DHT22;10144;50.874;4.762;2022-12-13T16:43:37;-1.90;99.90
19966;DHT22;10144;50.874;4.762;2022-12-13T16:46:06;-1.90;99.90
19966;DHT22;10144;50.874;4.762;2022-12-13T16:48:34;-1.90;99.90
19966;DHT22;10144;50.874;4.762;2022-12-13T16:50:59;-1.90;99.90
19966;DHT22;10144;50.874;4.762;2022-12-13T16:53:25;-1.90;99.90
19966;DHT22;10144;50.874;4.762;2022-12-13T16:55:51;-1.90;99.90
19966;DHT22;10144;50.874;4.762;2022-12-13T16:58:17;-1.90;99.90
19966;DHT22;10144;50.874;4.762;2022-12-13T17:00:44;-1.90;99.90
19966;DHT22;10144;50.874;4.762;2022-12-13T17:03:12;-1.90;99.90
19966;DHT22;10144;50.874;4.762;2022-12-13T17:05:39;-1.90;99.90
19966;DHT22;10144;50.874;4.762;2022-12-13T17:08:05;-1.90;99.90
19966;DHT22;10144;50.874;4.762;2022-12-13T17:10:31;-1.90;99.90
19966;DHT22;10144;50.874;4.762;2022-12-13T17:12:56;-1.90;99.90
19966;DHT22;10144;50.874;4.762;2022-12-13T17:15:22;-1.90;99.90
19966;DHT22;10144;50.874;4.762;2022-12-13T17:17:47;-1.90;99.90
19966;DHT22;10144;50.874;4.762;2022-12-13T17:20:15;-1.90;99.90
19966;DHT22;10144;50.874;4.762;2022-12-13T17:22:42;-1.90;99.90
19966;DHT22;10144;50.874;4.762;2022-12-13T17:25:08;-1.90;99.90
19966;DHT22;10144;50.874;4.762;2022-12-13T17:27:34;-1.90;99.90
19966;DHT22;10144;50.874;4.762;2022-12-13T17:30:00;-1.90;99.90
19966;DHT22;10144;50.874;4.762;2022-12-13T17:32:27;-1.90;99.90
19966;DHT22;10144;50.874;4.762;2022-12-13T17:34:53;-1.90;99.90
19966;DHT22;10144;50.874;4.762;2022-12-13T17:37:20;-1.90;99.90
19966;DHT22;10144;50.874;4.762;2022-12-13T17:39:46;-1.90;99.90
19966;DHT22;10144;50.874;4.762;2022-12-13T17:42:11;-1.90;99.90
19966;DHT22;10144;50.874;4.762;2022-12-13T17:44:37;-2.00;99.90
19966;DHT22;10144;50.874;4.762;2022-12-13T17:47:03;-1.90;99.90
19966;DHT22;10144;50.874;4.762;2022-12-13T17:49:29;-1.90;99.90
19966;DHT22;10144;50.874;4.762;2022-12-13T17:51:54;-2.00;99.90
19966;DHT22;10144;50.874;4.762;2022-12-13T17:54:21;-1.90;99.90
19966;DHT22;10144;50.874;4.762;2022-12-13T17:56:48;-1.90;99.90
19966;DHT22;10144;50.874;4.762;2022-12-13T17:59:14;-1.90;99.90
19966;DHT22;10144;50.874;4.762;2022-12-13T18:01:41;-1.90;99.90
19966;DHT22;10144;50.874;4.762;2022-12-13T18:04:08;-1.90;99.90
19966;DHT22;10144;50.874;4.762;2022-12-13T18:06:33;-1.90;99.90
19966;DHT22;10144;50.874;4.762;2022-12-13T18:08:59;-1.90;99.90
19966;DHT22;10144;50.874;4.762;2022-12-13T18:11:25;-1.90;99.90
19966;DHT22;10144;50.874;4.762;2022-12-13T18:13:51;-1.90;99.90
19966;DHT22;10144;50.874;4.762;2022-12-13T18:16:18;-2.00;99.90
19966;DHT22;10144;50.874;4.762;2022-12-13T18:18:44;-2.00;99.90
19966;DHT22;10144;50.874;4.762;2022-12-13T18:21:13;-2.00;99.90
19966;DHT22;10144;50.874;4.762;2022-12-13T18:23:40;-2.00;99.90